sensor_id;sensor_type;location;lat;lon;timestamp;pressure;altitude;pressure_sealevel;temperature;humidity
37848;BME280;23688;33.130;-117.188;2023-05-19T00:01:10;99223.19;;;20.56;78.55
37848;BME280;23688;33.130;-117.188;2023-05-19T00:03:51;99234.59;;;20.68;77.66
37848;BME280;23688;33.130;-117.188;2023-05-19T00:06:27;99216.97;;;20.78;77.89
37848;BME280;23688;33.130;-117.188;2023-05-19T00:08:58;99225.56;;;21.15;74.90
37848;BME280;23688;33.130;-117.188;2023-05-19T00:11:25;99219.38;;;21.23;72.55
37848;BME280;23688;33.130;-117.188;2023-05-19T00:13:56;99208.84;;;21.15;74.55
37848;BME280;23688;33.130;-117.188;2023-05-19T00:16:27;99208.94;;;21.03;75.98
37848;BME280;23688;33.130;-117.188;2023-05-19T00:18:54;99202.78;;;20.94;74.52
37848;BME280;23688;33.130;-117.188;2023-05-19T00:21:21;99196.69;;;20.86;76.09
37848;BME280;23688;33.130;-117.188;2023-05-19T00:23:48;99199.31;;;20.91;76.11
37848;BME280;23688;33.130;-117.188;2023-05-19T00:26:14;99211.69;;;20.75;75.67
37848;BME280;23688;33.130;-117.188;2023-05-19T00:28:40;99220.59;;;20.42;75.74
37848;BME280;23688;33.130;-117.188;2023-05-19T00:31:07;99216.19;;;20.33;77.87
37848;BME280;23688;33.130;-117.188;2023-05-19T00:33:33;99220.59;;;20.39;77.55
37848;BME280;23688;33.130;-117.188;2023-05-19T00:36:00;99216.25;;;20.18;78.27
37848;BME280;23688;33.130;-117.188;2023-05-19T00:38:32;99225.94;;;19.77;79.91
37848;BME280;23688;33.130;-117.188;2023-05-19T00:40:59;99227.66;;;19.55;81.78
37848;BME280;23688;33.130;-117.188;2023-05-19T00:43:25;99224.16;;;19.53;83.44
37848;BME280;23688;33.130;-117.188;2023-05-19T00:45:52;99220.66;;;19.43;82.08
37848;BME280;23688;33.130;-117.188;2023-05-19T00:48:18;99220.59;;;19.28;83.99
37848;BME280;23688;33.130;-117.188;2023-05-19T00:50:45;99228.53;;;19.40;83.77
37848;BME280;23688;33.130;-117.188;2023-05-19T00:53:13;99232.78;;;18.91;86.41
37848;BME280;23688;33.130;-117.188;2023-05-19T00:55:40;99231.78;;;18.61;88.64
37848;BME280;23688;33.130;-117.188;2023-05-19T00:58:09;99239.63;;;18.55;89.81
37848;BME280;23688;33.130;-117.188;2023-05-19T01:00:37;99249.28;;;18.56;87.66
37848;BME280;23688;33.130;-117.188;2023-05-19T01:03:05;99250.09;;;18.50;90.61
37848;BME280;23688;33.130;-117.188;2023-05-19T01:05:45;99249.16;;;18.36;89.92
37848;BME280;23688;33.130;-117.188;2023-05-19T01:08:12;99253.44;;;18.17;90.90
37848;BME280;23688;33.130;-117.188;2023-05-19T01:10:39;99259.66;;;18.36;91.73
37848;BME280;23688;33.130;-117.188;2023-05-19T01:13:06;99250.88;;;18.29;90.26
37848;BME280;23688;33.130;-117.188;2023-05-19T01:15:46;99256.13;;;18.29;89.97
37848;BME280;23688;33.130;-117.188;2023-05-19T01:18:27;99271.88;;;18.28;91.33
37848;BME280;23688;33.130;-117.188;2023-05-19T01:24:01;99273.34;;;17.92;92.13
37848;BME280;23688;33.130;-117.188;2023-05-19T01:29:41;99264.75;;;18.08;91.97
37848;BME280;23688;33.130;-117.188;2023-05-19T01:32:09;99265.66;;;18.12;91.81
37848;BME280;23688;33.130;-117.188;2023-05-19T01:34:40;99270.94;;;18.15;90.82
37848;BME280;23688;33.130;-117.188;2023-05-19T01:37:08;99277.50;;;17.70;93.56
37848;BME280;23688;33.130;-117.188;2023-05-19T01:39:35;99268.69;;;17.59;94.43
37848;BME280;23688;33.130;-117.188;2023-05-19T01:42:03;99261.19;;;17.10;96.15
37848;BME280;23688;33.130;-117.188;2023-05-19T01:44:30;99292.09;;;16.68;100.00
37848;BME280;23688;33.130;-117.188;2023-05-19T01:46:58;99283.78;;;16.36;100.00
37848;BME280;23688;33.130;-117.188;2023-05-19T01:49:24;99300.66;;;15.99;100.00
37848;BME280;23688;33.130;-117.188;2023-05-19T01:51:51;99293.75;;;16.02;100.00
37848;BME280;23688;33.130;-117.188;2023-05-19T01:54:17;99298.88;;;15.95;100.00
37848;BME280;23688;33.130;-117.188;2023-05-19T02:03:09;99301.66;;;16.05;100.00
37848;BME280;23688;33.130;-117.188;2023-05-19T02:08:27;99288.25;;;15.87;100.00
37848;BME280;23688;33.130;-117.188;2023-05-19T02:11:04;99300.31;;;15.79;100.00
37848;BME280;23688;33.130;-117.188;2023-05-19T02:13:42;99315.22;;;15.81;100.00
37848;BME280;23688;33.130;-117.188;2023-05-19T02:16:10;99297.06;;;15.44;100.00
37848;BME280;23688;33.130;-117.188;2023-05-19T02:18:40;99317.81;;;15.36;100.00
37848;BME280;23688;33.130;-117.188;2023-05-19T02:21:10;99311.84;;;15.43;100.00
37848;BME280;23688;33.130;-117.188;2023-05-19T02:23:41;99310.88;;;15.36;100.00
37848;BME280;23688;33.130;-117.188;2023-05-19T02:26:07;99314.03;;;15.20;100.00
37848;BME280;23688;33.130;-117.188;2023-05-19T02:28:34;99317.44;;;15.14;100.00
37848;BME280;23688;33.130;-117.188;2023-05-19T02:31:02;99309.66;;;15.19;100.00
37848;BME280;23688;33.130;-117.188;2023-05-19T02:33:31;99312.50;;;15.30;100.00
37848;BME280;23688;33.130;-117.188;2023-05-19T02:35:57;99320.19;;;15.24;100.00
37848;BME280;23688;33.130;-117.188;2023-05-19T02:38:23;99311.44;;;15.20;100.00
37848;BME280;23688;33.130;-117.188;2023-05-19T02:40:51;99314.75;;;15.57;100.00
37848;BME280;23688;33.130;-117.188;2023-05-19T02:43:19;99318.63;;;15.77;100.00
37848;BME280;23688;33.130;-117.188;2023-05-19T02:45:46;99325.13;;;15.52;100.00
37848;BME280;23688;33.130;-117.188;2023-05-19T02:48:12;99309.00;;;15.29;100.00
37848;BME280;23688;33.130;-117.188;2023-05-19T02:50:38;99337.13;;;15.43;100.00
37848;BME280;23688;33.130;-117.188;2023-05-19T02:53:04;99326.06;;;15.57;100.00
37848;BME280;23688;33.130;-117.188;2023-05-19T02:55:31;99322.75;;;15.66;100.00
37848;BME280;23688;33.130;-117.188;2023-05-19T02:57:57;99337.28;;;15.50;100.00
37848;BME280;23688;33.130;-117.188;2023-05-19T03:00:23;99340.72;;;15.46;100.00
37848;BME280;23688;33.130;-117.188;2023-05-19T03:02:49;99333.50;;;15.34;100.00
37848;BME280;23688;33.130;-117.188;2023-05-19T03:05:17;99334.09;;;15.67;100.00
37848;BME280;23688;33.130;-117.188;2023-05-19T03:07:44;99346.31;;;15.66;100.00
37848;BME280;23688;33.130;-117.188;2023-05-19T03:10:11;99342.25;;;15.82;100.00
37848;BME280;23688;33.130;-117.188;2023-05-19T03:12:37;99347.66;;;15.91;100.00
37848;BME280;23688;33.130;-117.188;2023-05-19T03:15:04;99342.22;;;15.79;100.00
37848;BME280;23688;33.130;-117.188;2023-05-19T03:17:30;99346.00;;;15.95;100.00
37848;BME280;23688;33.130;-117.188;2023-05-19T03:19:59;99352.19;;;16.01;100.00
37848;BME280;23688;33.130;-117.188;2023-05-19T03:22:26;99348.81;;;16.09;100.00
37848;BME280;23688;33.130;-117.188;2023-05-19T03:24:52;99338.34;;;16.09;100.00
37848;BME280;23688;33.130;-117.188;2023-05-19T03:27:19;99341.22;;;16.24;100.00
37848;BME280;23688;33.130;-117.188;2023-05-19T03:29:45;99349.09;;;16.25;100.00
37848;BME280;23688;33.130;-117.188;2023-05-19T03:32:11;99360.47;;;16.24;100.00
37848;BME280;23688;33.130;-117.188;2023-05-19T03:34:37;99360.34;;;16.18;100.00
37848;BME280;23688;33.130;-117.188;2023-05-19T03:37:04;99350.69;;;16.14;100.00
37848;BME280;23688;33.130;-117.188;2023-05-19T03:39:30;99353.31;;;16.16;100.00
37848;BME280;23688;33.130;-117.188;2023-05-19T03:41:56;99353.34;;;16.19;100.00
37848;BME280;23688;33.130;-117.188;2023-05-19T03:44:23;99357.81;;;16.23;100.00
37848;BME280;23688;33.130;-117.188;2023-05-19T03:46:49;99357.75;;;16.20;100.00
37848;BME280;23688;33.130;-117.188;2023-05-19T03:49:15;99363.91;;;16.23;100.00
37848;BME280;23688;33.130;-117.188;2023-05-19T03:51:41;99358.13;;;15.91;100.00
37848;BME280;23688;33.130;-117.188;2023-05-19T03:54:09;99361.44;;;15.81;100.00
37848;BME280;23688;33.130;-117.188;2023-05-19T03:56:38;99366.13;;;15.99;100.00
37848;BME280;23688;33.130;-117.188;2023-05-19T03:59:04;99375.75;;;16.00;100.00
37848;BME280;23688;33.130;-117.188;2023-05-19T04:01:32;99380.16;;;16.04;100.00
37848;BME280;23688;33.130;-117.188;2023-05-19T04:03:58;99379.50;;;16.14;100.00
37848;BME280;23688;33.130;-117.188;2023-05-19T04:06:25;99376.06;;;16.17;100.00
37848;BME280;23688;33.130;-117.188;2023-05-19T04:08:51;99385.41;;;16.04;100.00
37848;BME280;23688;33.130;-117.188;2023-05-19T04:11:17;99384.31;;;15.91;100.00
37848;BME280;23688;33.130;-117.188;2023-05-19T04:13:47;99381.47;;;15.79;100.00
37848;BME280;23688;33.130;-117.188;2023-05-19T04:16:13;99401.94;;;16.00;100.00
37848;BME280;23688;33.130;-117.188;2023-05-19T04:18:39;99388.81;;;15.98;100.00
37848;BME280;23688;33.130;-117.188;2023-05-19T04:21:06;99392.47;;;16.08;100.00
37848;BME280;23688;33.130;-117.188;2023-05-19T04:23:33;99390.78;;;16.12;100.00
37848;BME280;23688;33.130;-117.188;2023-05-19T04:26:00;99406.66;;;16.21;100.00
37848;BME280;23688;33.130;-117.188;2023-05-19T04:28:30;99404.88;;;16.18;100.00
37848;BME280;23688;33.130;-117.188;2023-05-19T04:30:56;99408.28;;;16.13;100.00
37848;BME280;23688;33.130;-117.188;2023-05-19T04:33:24;99416.16;;;16.14;100.00
37848;BME280;23688;33.130;-117.188;2023-05-19T04:35:50;99417.03;;;16.15;100.00
37848;BME280;23688;33.130;-117.188;2023-05-19T04:38:16;99423.19;;;16.18;100.00
37848;BME280;23688;33.130;-117.188;2023-05-19T04:40:44;99420.97;;;15.91;100.00
37848;BME280;23688;33.130;-117.188;2023-05-19T04:43:10;99416.59;;;15.90;100.00
37848;BME280;23688;33.130;-117.188;2023-05-19T04:45:37;99420.19;;;15.97;100.00
37848;BME280;23688;33.130;-117.188;2023-05-19T04:48:07;99402.56;;;15.85;100.00
37848;BME280;23688;33.130;-117.188;2023-05-19T04:50:33;99423.63;;;15.93;100.00
37848;BME280;23688;33.130;-117.188;2023-05-19T04:53:03;99431.25;;;15.80;100.00
37848;BME280;23688;33.130;-117.188;2023-05-19T04:55:34;99428.56;;;15.77;100.00
37848;BME280;23688;33.130;-117.188;2023-05-19T04:58:02;99433.88;;;15.80;100.00
37848;BME280;23688;33.130;-117.188;2023-05-19T05:00:29;99439.56;;;15.61;100.00
37848;BME280;23688;33.130;-117.188;2023-05-19T05:02:55;99430.28;;;15.75;100.00
37848;BME280;23688;33.130;-117.188;2023-05-19T05:05:24;99439.25;;;15.90;100.00
37848;BME280;23688;33.130;-117.188;2023-05-19T05:07:50;99438.84;;;15.68;100.00
37848;BME280;23688;33.130;-117.188;2023-05-19T05:10:18;99444.53;;;15.49;100.00
37848;BME280;23688;33.130;-117.188;2023-05-19T05:12:45;99442.81;;;15.51;100.00
37848;BME280;23688;33.130;-117.188;2023-05-19T05:15:11;99448.38;;;15.66;100.00
37848;BME280;23688;33.130;-117.188;2023-05-19T05:17:38;99436.41;;;15.76;100.00
37848;BME280;23688;33.130;-117.188;2023-05-19T05:20:05;99446.81;;;15.74;100.00
37848;BME280;23688;33.130;-117.188;2023-05-19T05:22:32;99447.94;;;15.86;100.00
37848;BME280;23688;33.130;-117.188;2023-05-19T05:24:59;99446.38;;;15.95;100.00
37848;BME280;23688;33.130;-117.188;2023-05-19T05:27:28;99447.78;;;15.79;100.00
37848;BME280;23688;33.130;-117.188;2023-05-19T05:29:54;99460.75;;;15.72;100.00
37848;BME280;23688;33.130;-117.188;2023-05-19T05:32:21;99462.63;;;15.79;100.00
37848;BME280;23688;33.130;-117.188;2023-05-19T05:34:48;99462.19;;;15.59;100.00
37848;BME280;23688;33.130;-117.188;2023-05-19T05:37:15;99442.38;;;15.70;100.00
37848;BME280;23688;33.130;-117.188;2023-05-19T05:39:41;99457.44;;;15.80;100.00
37848;BME280;23688;33.130;-117.188;2023-05-19T05:42:08;99456.63;;;15.84;100.00
37848;BME280;23688;33.130;-117.188;2023-05-19T05:44:34;99447.06;;;15.87;100.00
37848;BME280;23688;33.130;-117.188;2023-05-19T05:47:02;99466.50;;;15.98;100.00
37848;BME280;23688;33.130;-117.188;2023-05-19T05:49:29;99447.19;;;15.93;100.00
37848;BME280;23688;33.130;-117.188;2023-05-19T05:51:55;99462.97;;;15.96;100.00
37848;BME280;23688;33.130;-117.188;2023-05-19T05:54:22;99468.25;;;15.99;100.00
37848;BME280;23688;33.130;-117.188;2023-05-19T05:56:49;99460.38;;;15.97;100.00
37848;BME280;23688;33.130;-117.188;2023-05-19T05:59:16;99464.72;;;15.97;100.00
37848;BME280;23688;33.130;-117.188;2023-05-19T06:01:42;99469.16;;;16.01;100.00
37848;BME280;23688;33.130;-117.188;2023-05-19T06:04:09;99471.72;;;15.98;100.00
37848;BME280;23688;33.130;-117.188;2023-05-19T06:06:35;99468.25;;;15.56;100.00
37848;BME280;23688;33.130;-117.188;2023-05-19T06:09:03;99478.31;;;15.38;100.00
37848;BME280;23688;33.130;-117.188;2023-05-19T06:11:31;99467.22;;;15.50;100.00
37848;BME280;23688;33.130;-117.188;2023-05-19T06:13:57;99474.63;;;15.69;100.00
37848;BME280;23688;33.130;-117.188;2023-05-19T06:16:24;99460.16;;;15.87;100.00
37848;BME280;23688;33.130;-117.188;2023-05-19T06:18:50;99448.81;;;15.86;100.00
37848;BME280;23688;33.130;-117.188;2023-05-19T06:21:16;99455.59;;;15.76;100.00
37848;BME280;23688;33.130;-117.188;2023-05-19T06:23:42;99443.53;;;15.83;100.00
37848;BME280;23688;33.130;-117.188;2023-05-19T06:26:09;99457.78;;;15.99;100.00
37848;BME280;23688;33.130;-117.188;2023-05-19T06:28:35;99442.00;;;15.96;100.00
37848;BME280;23688;33.130;-117.188;2023-05-19T06:31:02;99455.28;;;16.05;100.00
37848;BME280;23688;33.130;-117.188;2023-05-19T06:33:28;99460.44;;;16.02;100.00
37848;BME280;23688;33.130;-117.188;2023-05-19T06:35:54;99461.34;;;16.04;100.00
37848;BME280;23688;33.130;-117.188;2023-05-19T06:38:20;99458.59;;;15.95;100.00
37848;BME280;23688;33.130;-117.188;2023-05-19T06:40:47;99465.56;;;15.96;100.00
37848;BME280;23688;33.130;-117.188;2023-05-19T06:43:13;99473.03;;;15.76;100.00
37848;BME280;23688;33.130;-117.188;2023-05-19T06:45:40;99456.38;;;15.71;100.00
37848;BME280;23688;33.130;-117.188;2023-05-19T06:48:06;99470.44;;;15.77;100.00
37848;BME280;23688;33.130;-117.188;2023-05-19T06:50:32;99466.22;;;15.84;100.00
37848;BME280;23688;33.130;-117.188;2023-05-19T06:52:59;99461.03;;;15.87;100.00
37848;BME280;23688;33.130;-117.188;2023-05-19T06:55:26;99466.16;;;15.81;100.00
37848;BME280;23688;33.130;-117.188;2023-05-19T06:57:53;99458.41;;;15.86;100.00
37848;BME280;23688;33.130;-117.188;2023-05-19T07:00:19;99461.03;;;15.86;100.00
37848;BME280;23688;33.130;-117.188;2023-05-19T07:02:45;99463.69;;;15.89;100.00
37848;BME280;23688;33.130;-117.188;2023-05-19T07:05:12;99451.34;;;15.81;100.00
37848;BME280;23688;33.130;-117.188;2023-05-19T07:07:38;99439.94;;;15.78;100.00
37848;BME280;23688;33.130;-117.188;2023-05-19T07:10:05;99454.72;;;15.77;100.00
37848;BME280;23688;33.130;-117.188;2023-05-19T07:12:31;99444.66;;;15.55;100.00
37848;BME280;23688;33.130;-117.188;2023-05-19T07:14:58;99458.66;;;15.57;100.00
37848;BME280;23688;33.130;-117.188;2023-05-19T07:17:24;99456.19;;;15.65;100.00
37848;BME280;23688;33.130;-117.188;2023-05-19T07:19:50;99451.00;;;15.68;100.00
37848;BME280;23688;33.130;-117.188;2023-05-19T07:22:17;99446.16;;;15.84;100.00
37848;BME280;23688;33.130;-117.188;2023-05-19T07:24:43;99456.72;;;15.89;100.00
37848;BME280;23688;33.130;-117.188;2023-05-19T07:27:09;99455.06;;;15.93;100.00
37848;BME280;23688;33.130;-117.188;2023-05-19T07:29:35;99455.94;;;15.93;100.00
37848;BME280;23688;33.130;-117.188;2023-05-19T07:32:02;99453.31;;;15.93;100.00
37848;BME280;23688;33.130;-117.188;2023-05-19T07:34:28;99458.59;;;15.95;100.00
37848;BME280;23688;33.130;-117.188;2023-05-19T07:36:55;99439.25;;;15.90;100.00
37848;BME280;23688;33.130;-117.188;2023-05-19T07:39:21;99446.09;;;15.81;100.00
37848;BME280;23688;33.130;-117.188;2023-05-19T07:41:50;99445.03;;;15.72;100.00
37848;BME280;23688;33.130;-117.188;2023-05-19T07:44:20;99448.34;;;15.63;100.00
37848;BME280;23688;33.130;-117.188;2023-05-19T07:46:47;99452.56;;;15.56;100.00
37848;BME280;23688;33.130;-117.188;2023-05-19T07:49:13;99444.75;;;15.59;100.00
37848;BME280;23688;33.130;-117.188;2023-05-19T07:51:39;99456.25;;;15.66;100.00
37848;BME280;23688;33.130;-117.188;2023-05-19T07:54:06;99454.63;;;15.71;100.00
37848;BME280;23688;33.130;-117.188;2023-05-19T07:56:35;99454.69;;;15.74;100.00
37848;BME280;23688;33.130;-117.188;2023-05-19T07:59:02;99450.75;;;15.54;100.00
37848;BME280;23688;33.130;-117.188;2023-05-19T08:01:30;99463.94;;;15.58;100.00
37848;BME280;23688;33.130;-117.188;2023-05-19T08:03:57;99453.38;;;15.54;100.00
37848;BME280;23688;33.130;-117.188;2023-05-19T08:06:23;99448.91;;;15.50;100.00
37848;BME280;23688;33.130;-117.188;2023-05-19T08:08:50;99455.59;;;15.35;100.00
37848;BME280;23688;33.130;-117.188;2023-05-19T08:11:17;99461.94;;;15.47;100.00
37848;BME280;23688;33.130;-117.188;2023-05-19T08:13:43;99453.13;;;15.41;100.00
37848;BME280;23688;33.130;-117.188;2023-05-19T08:16:12;99464.66;;;15.53;100.00
37848;BME280;23688;33.130;-117.188;2023-05-19T08:18:38;99468.25;;;15.58;100.00
37848;BME280;23688;33.130;-117.188;2023-05-19T08:21:05;99463.03;;;15.56;100.00
37848;BME280;23688;33.130;-117.188;2023-05-19T08:23:32;99457.72;;;15.53;100.00
37848;BME280;23688;33.130;-117.188;2023-05-19T08:25:59;99455.06;;;15.52;100.00
37848;BME280;23688;33.130;-117.188;2023-05-19T08:28:25;99455.00;;;15.49;100.00
37848;BME280;23688;33.130;-117.188;2023-05-19T08:30:51;99447.94;;;15.45;100.00
37848;BME280;23688;33.130;-117.188;2023-05-19T08:33:18;99455.94;;;15.52;100.00
37848;BME280;23688;33.130;-117.188;2023-05-19T08:35:46;99462.16;;;15.56;100.00
37848;BME280;23688;33.130;-117.188;2023-05-19T08:38:12;99446.34;;;15.53;100.00
37848;BME280;23688;33.130;-117.188;2023-05-19T08:40:42;99435.72;;;15.44;100.00
37848;BME280;23688;33.130;-117.188;2023-05-19T08:43:11;99448.81;;;15.44;100.00
37848;BME280;23688;33.130;-117.188;2023-05-19T08:45:42;99444.41;;;15.43;100.00
37848;BME280;23688;33.130;-117.188;2023-05-19T08:48:08;99451.38;;;15.42;100.00
37848;BME280;23688;33.130;-117.188;2023-05-19T08:50:38;99446.91;;;15.36;100.00
37848;BME280;23688;33.130;-117.188;2023-05-19T08:53:13;99447.06;;;15.46;100.00
37848;BME280;23688;33.130;-117.188;2023-05-19T08:56:14;99454.19;;;15.51;100.00
37848;BME280;23688;33.130;-117.188;2023-05-19T08:58:41;99454.81;;;15.41;100.00
37848;BME280;23688;33.130;-117.188;2023-05-19T09:01:15;99448.72;;;15.40;100.00
37848;BME280;23688;33.130;-117.188;2023-05-19T09:03:45;99443.56;;;15.44;100.00
37848;BME280;23688;33.130;-117.188;2023-05-19T09:06:14;99428.34;;;15.24;100.00
37848;BME280;23688;33.130;-117.188;2023-05-19T09:08:43;99423.63;;;15.09;100.00
37848;BME280;23688;33.130;-117.188;2023-05-19T09:11:10;99448.28;;;15.20;100.00
37848;BME280;23688;33.130;-117.188;2023-05-19T09:13:37;99441.16;;;15.12;100.00
37848;BME280;23688;33.130;-117.188;2023-05-19T09:16:04;99437.00;;;15.22;100.00
37848;BME280;23688;33.130;-117.188;2023-05-19T09:18:31;99431.78;;;15.22;100.00
37848;BME280;23688;33.130;-117.188;2023-05-19T09:20:59;99431.78;;;15.22;100.00
37848;BME280;23688;33.130;-117.188;2023-05-19T09:23:33;99439.88;;;15.35;100.00
37848;BME280;23688;33.130;-117.188;2023-05-19T09:26:03;99447.91;;;15.43;100.00
37848;BME280;23688;33.130;-117.188;2023-05-19T09:28:37;99445.38;;;15.48;100.00
37848;BME280;23688;33.130;-117.188;2023-05-19T09:31:08;99430.53;;;15.47;100.00
37848;BME280;23688;33.130;-117.188;2023-05-19T09:33:39;99435.25;;;15.63;100.00
37848;BME280;23688;33.130;-117.188;2023-05-19T09:36:07;99437.00;;;15.64;100.00
37848;BME280;23688;33.130;-117.188;2023-05-19T09:38:39;99431.75;;;15.64;100.00
37848;BME280;23688;33.130;-117.188;2023-05-19T09:41:07;99430.06;;;15.66;100.00
37848;BME280;23688;33.130;-117.188;2023-05-19T09:43:34;99431.72;;;15.61;100.00
37848;BME280;23688;33.130;-117.188;2023-05-19T09:46:09;99437.91;;;15.66;100.00
37848;BME280;23688;33.130;-117.188;2023-05-19T09:48:38;99429.94;;;15.60;100.00
37848;BME280;23688;33.130;-117.188;2023-05-19T09:51:06;99424.66;;;15.57;100.00
37848;BME280;23688;33.130;-117.188;2023-05-19T09:53:35;99429.00;;;15.56;100.00
37848;BME280;23688;33.130;-117.188;2023-05-19T09:56:02;99440.34;;;15.57;100.00
37848;BME280;23688;33.130;-117.188;2023-05-19T09:58:32;99430.81;;;15.60;100.00
37848;BME280;23688;33.130;-117.188;2023-05-19T10:01:05;99427.34;;;15.61;100.00
37848;BME280;23688;33.130;-117.188;2023-05-19T10:03:33;99439.56;;;15.61;100.00
37848;BME280;23688;33.130;-117.188;2023-05-19T10:06:03;99437.78;;;15.58;100.00
37848;BME280;23688;33.130;-117.188;2023-05-19T10:08:33;99437.88;;;15.65;100.00
37848;BME280;23688;33.130;-117.188;2023-05-19T10:11:01;99435.31;;;15.66;100.00
37848;BME280;23688;33.130;-117.188;2023-05-19T10:13:28;99430.88;;;15.63;100.00
37848;BME280;23688;33.130;-117.188;2023-05-19T10:15:57;99424.84;;;15.66;100.00
37848;BME280;23688;33.130;-117.188;2023-05-19T10:18:25;99430.97;;;15.68;100.00
37848;BME280;23688;33.130;-117.188;2023-05-19T10:20:51;99421.00;;;15.49;100.00
37848;BME280;23688;33.130;-117.188;2023-05-19T10:23:19;99440.41;;;15.60;100.00
37848;BME280;23688;33.130;-117.188;2023-05-19T10:25:46;99448.13;;;15.54;100.00
37848;BME280;23688;33.130;-117.188;2023-05-19T10:28:16;99442.09;;;15.58;100.00
37848;BME280;23688;33.130;-117.188;2023-05-19T10:30:49;99441.41;;;15.67;100.00
37848;BME280;23688;33.130;-117.188;2023-05-19T10:33:17;99424.88;;;15.69;100.00
37848;BME280;23688;33.130;-117.188;2023-05-19T10:38:55;99416.28;;;15.73;100.00
37848;BME280;23688;33.130;-117.188;2023-05-19T10:46:33;99426.84;;;15.78;100.00
37848;BME280;23688;33.130;-117.188;2023-05-19T10:48:59;99422.34;;;15.71;100.00
37848;BME280;23688;33.130;-117.188;2023-05-19T10:51:32;99443.44;;;15.80;100.00
37848;BME280;23688;33.130;-117.188;2023-05-19T10:54:02;99455.56;;;15.75;100.00
37848;BME280;23688;33.130;-117.188;2023-05-19T10:56:30;99430.06;;;15.66;100.00
37848;BME280;23688;33.130;-117.188;2023-05-19T10:59:00;99444.22;;;15.74;100.00
37848;BME280;23688;33.130;-117.188;2023-05-19T11:01:33;99438.84;;;15.68;100.00
37848;BME280;23688;33.130;-117.188;2023-05-19T11:04:07;99441.53;;;15.71;100.00
37848;BME280;23688;33.130;-117.188;2023-05-19T11:06:38;99444.00;;;15.65;100.00
37848;BME280;23688;33.130;-117.188;2023-05-19T11:09:17;99432.44;;;15.55;100.00
37848;BME280;23688;33.130;-117.188;2023-05-19T11:11:48;99432.41;;;15.52;100.00
37848;BME280;23688;33.130;-117.188;2023-05-19T11:14:18;99442.88;;;15.52;100.00
37848;BME280;23688;33.130;-117.188;2023-05-19T11:16:51;99447.22;;;15.52;100.00
37848;BME280;23688;33.130;-117.188;2023-05-19T11:19:18;99427.78;;;15.39;100.00
37848;BME280;23688;33.130;-117.188;2023-05-19T11:21:51;99446.25;;;15.48;100.00
37848;BME280;23688;33.130;-117.188;2023-05-19T11:24:38;99448.88;;;15.48;100.00
37848;BME280;23688;33.130;-117.188;2023-05-19T11:27:31;99452.44;;;15.52;100.00
37848;BME280;23688;33.130;-117.188;2023-05-19T11:32:32;99458.47;;;15.48;100.00
37848;BME280;23688;33.130;-117.188;2023-05-19T11:34:59;99455.00;;;15.49;100.00
37848;BME280;23688;33.130;-117.188;2023-05-19T11:37:26;99462.91;;;15.52;100.00
37848;BME280;23688;33.130;-117.188;2023-05-19T11:39:53;99459.28;;;15.44;100.00
37848;BME280;23688;33.130;-117.188;2023-05-19T11:42:20;99467.91;;;15.39;100.00
37848;BME280;23688;33.130;-117.188;2023-05-19T11:44:48;99465.13;;;15.33;100.00
37848;BME280;23688;33.130;-117.188;2023-05-19T11:47:15;99461.53;;;15.28;100.00
37848;BME280;23688;33.130;-117.188;2023-05-19T11:49:47;99455.44;;;15.28;100.00
37848;BME280;23688;33.130;-117.188;2023-05-19T11:52:14;99452.53;;;15.15;100.00
37848;BME280;23688;33.130;-117.188;2023-05-19T11:54:41;99457.88;;;15.20;100.00
37848;BME280;23688;33.130;-117.188;2023-05-19T11:57:08;99457.00;;;15.21;100.00
37848;BME280;23688;33.130;-117.188;2023-05-19T11:59:38;99466.66;;;15.24;100.00
37848;BME280;23688;33.130;-117.188;2023-05-19T12:02:21;99457.78;;;15.15;100.00
37848;BME280;23688;33.130;-117.188;2023-05-19T12:04:49;99466.56;;;15.19;100.00
37848;BME280;23688;33.130;-117.188;2023-05-19T12:07:19;99469.06;;;15.13;100.00
37848;BME280;23688;33.130;-117.188;2023-05-19T12:09:48;99480.53;;;15.19;100.00
37848;BME280;23688;33.130;-117.188;2023-05-19T12:12:16;99486.78;;;15.26;100.00
37848;BME280;23688;33.130;-117.188;2023-05-19T12:14:45;99483.31;;;15.27;100.00
37848;BME280;23688;33.130;-117.188;2023-05-19T12:17:13;99481.63;;;15.29;100.00
37848;BME280;23688;33.130;-117.188;2023-05-19T12:19:42;99485.22;;;15.34;100.00
37848;BME280;23688;33.130;-117.188;2023-05-19T12:22:09;99486.06;;;15.33;100.00
37848;BME280;23688;33.130;-117.188;2023-05-19T12:24:36;99482.59;;;15.34;100.00
37848;BME280;23688;33.130;-117.188;2023-05-19T12:27:09;99482.72;;;15.39;100.00
37848;BME280;23688;33.130;-117.188;2023-05-19T12:29:39;99475.59;;;15.33;100.00
37848;BME280;23688;33.130;-117.188;2023-05-19T12:32:09;99490.50;;;15.37;100.00
37848;BME280;23688;33.130;-117.188;2023-05-19T12:34:36;99493.19;;;15.39;100.00
37848;BME280;23688;33.130;-117.188;2023-05-19T12:37:04;99505.44;;;15.41;100.00
37848;BME280;23688;33.130;-117.188;2023-05-19T12:39:30;99490.91;;;15.15;100.00
37848;BME280;23688;33.130;-117.188;2023-05-19T12:42:06;99514.44;;;15.16;100.00
37848;BME280;23688;33.130;-117.188;2023-05-19T12:44:44;99513.44;;;15.10;100.00
37848;BME280;23688;33.130;-117.188;2023-05-19T12:47:18;99512.28;;;14.98;100.00
37848;BME280;23688;33.130;-117.188;2023-05-19T12:52:22;99521.06;;;15.01;100.00
37848;BME280;23688;33.130;-117.188;2023-05-19T12:54:49;99533.38;;;15.05;100.00